AirNav   Pilot Hours Calculator
 
 787 users online  

53NE Starns Brothers Airport
Ashland, Nebraska, USA

GOING TO ASHLAND?


FAA INFORMATION EFFECTIVE 03 NOVEMBER 2022

Location

FAA Identifier: 53NE
Lat/Long: 41-04-52.9950N 096-24-12.0520W
41-04.883250N 096-24.200867W
41.0813875,-96.4033478
(estimated)
Elevation: 1090 ft. / 332 m (estimated)
Variation: 06E (1985)
From city: 3 miles NW of ASHLAND, NE
Time zone: UTC -6 (UTC -5 during Daylight Saving Time)
Zip code: 68003

Airport Operations

Airport use: Private use. Permission required prior to landing
Activation date: 04/1983
Control tower: no
ARTCC: MINNEAPOLIS CENTER
FSS: COLUMBUS FLIGHT SERVICE STATION
Attendance: UNATNDD
Wind indicator: yes
Segmented circle: no

Airport Communications

WX AWOS-3P at AHQ (13 nm NW): 125.975 (402-443-4030)
WX AWOS-3 at MLE (15 nm NE): 118.25 (402-895-6778)

Nearby radio navigation aids

VOR radial/distance  VOR name  Freq  Var
LNKr049/18.0LINCOLN VORTAC116.1009E
OVRr252/30.6OMAHA VORTAC116.3008E
SCBr156/33.0SCRIBNER VOR/DME111.0006E

 
NDB name  Hdg/Dist  Freq  Var  ID
WAHOO131/12.940006EAHQ .- .... --.-
PLATTSMOUTH285/23.732905EPMV .--. -- ...-
NEBRASKA CITY314/37.734705EAFK .- ..-. -.-

Airport Services

Runway Information

Runway 17/35

Dimensions: 2000 x 60 ft. / 610 x 18 m
Surface: turf
RUNWAY 17  RUNWAY 35
Traffic pattern: leftright
Displaced threshold: no150 ft.
Markings: NSTDNSTD
Obstructions: none55 ft. pline, marked, 1055 ft. from runway

Airport Ownership and Management from official FAA records

Ownership: Privately-owned
Owner: STARNS BROS.
580 CO RD 5
ASHLAND, NE 68003
Phone (402) 944-2395
Manager: JOHN F STARNS
P O BOX 37, 320 CO. RD 5
ASHLAND, NE 68003
Phone (402) 944-6036

Airport Operational Statistics

Aircraft based on the field: 2
Single engine airplanes: 2
    

Additional Remarks

FOR CD CTC OMAHA APCH AT 402-682-4395.

Instrument Procedures

There are no published instrument procedures at 53NE.

Some nearby airports with instrument procedures:

KAHQ - Wahoo Municipal Airport (13 nm NW)
KMLE - Millard Airport (15 nm NE)
KLNK - Lincoln Airport (21 nm SW)
KOFF - Offutt Air Force Base (22 nm E)
KFET - Fremont Municipal Airport (23 nm N)
 
Loc | Ops | Rwys | IFR | FBO | Links
Com | Nav | Svcs | Stats | Notes
Area around 53NE (Starns Brothers Airport)
 
Road maps at: MapQuest Bing Google
 
Aerial photo
No photo
 
Sectional chart

 
Airport distance calculator
Flying to Starns Brothers Airport? Find the distance to fly.

From to 53NE

Sunrise and sunset
Times for 30-Nov-2022
 Local
(UTC-6)
 Zulu
(UTC)
Morning civil twilight07:0113:01
Sunrise07:3113:31
Sunset16:5722:57
Evening civil twilight17:2823:28

Current date and time
Zulu (UTC)  01-Dec-2022 04:36:50
Local (UTC-6)  30-Nov-2022 22:36:50
 
METAR
KAHQ 
13nm NW 
010415Z AUTO 16004KT 10SM CLR M11/M14 A3035 RMK AO2 T11061140
KMLE 
15nm NE 
010415Z AUTO 00000KT 10SM CLR M08/M11 A3037 RMK AO2 T10851111
KOFF 
22nm E 
010355Z 00000KT 10SM CLR M08/M12 A3039 RMK AO2A SLP314 T10791119 PWINO PNO FZRANO TSNO $
KLNK 
22nm SW 
010354Z 15003KT 10SM CLR M06/M13 A3036 RMK AO2 SLP300 T10611133
KFET 
23nm N 
010415Z AUTO 15003KT 10SM CLR M08/M11 A3034 RMK AO2 T10761115
KPMV 
23nm E 
010415Z AUTO 15005KT 10SM CLR M09/M13 RMK AO2 T10871127
KBTA 
24nm NE 
010415Z AUTO 15004KT 10SM CLR M08/M12 A3034 RMK AO2 T10851122
TAF
NOTAMs
Click for the latest NOTAMs
NOTAMs are issued by the DoD/FAA and will open in a separate window not controlled by AirNav.

 

 
 

Would you like to see your business listed on this page?

 If your business provides an interesting product or service to pilots, flight crews, aircraft, or users of the Starns Brothers Airport, you should consider listing it here.  To start the listing process, click on the button below
 
Add a business
 

Other Pages about Starns Brothers Airport

Update a link
 
Copyright © AirNav, LLC. All rights reserved. Privacy Policy  Contact